[source: ADDS]
METAR
EDVE 121120Z 12013KT 090V150 CAVOK 31/11 Q1018

TAF EDVE 121100Z 1212/1221 12010KT CAVOK PROB30 TEMPO 1212/1215 12015G25KT BECMG 1217/1219 11005KT EDDV 121120Z 11012KT 070V160 CAVOK 31/11 Q1017 BECMG 12015G25KT

TAF EDDV 121100Z 1212/1312 11012KT CAVOK PROB30 TEMPO 1212/1215 12015G25KT BECMG 1217/1219 08007KT ETHS 121120Z 14010KT 9999 FEW080 SCT350 31/11 Q1018 BLU+BLU+

TAF ETHS 121020Z 1211/1220 12012G22KT 9999 NSW FEW120 SCT350 BECMG 1218/1220 12008KT 9999 NSW FEW120 SCT350 ETHC 121120Z 12012KT 9999 FEW070 SCT320 31/11 Q1017 BLU+BLU+

TAF ETHC 121017Z 1211/1220 10012G22KT 9999 NSW SCT320 EDVK 121120Z 18006KT 090V220 CAVOK 29/16 Q1017

TAF EDVK 121100Z 1212/1221 11009KT CAVOK PROB30 TEMPO 1212/1219 12015G30KT TSRA SCT060CB
TAF
TAF EDVE 121100Z 1212/1221 12010KT CAVOK PROB30 TEMPO 1212/1215 12015G25KT BECMG 1217/1219 11005KT

TAF EDDV 121100Z 1212/1312 11012KT CAVOK PROB30 TEMPO 1212/1215 12015G25KT BECMG 1217/1219 08007KT

TAF ETHS 121020Z 1211/1220 12012G22KT 9999 NSW FEW120 SCT350 BECMG 1218/1220 12008KT 9999 NSW FEW120 SCT350

TAF ETHC 121017Z 1211/1220 10012G22KT 9999 NSW SCT320

TAF EDVK 121100Z 1212/1221 11009KT CAVOK PROB30 TEMPO 1212/1219 12015G30KT TSRA SCT060CB

SR / SS: 03:57 / 18:48 UTC (EDVE 2020-08-12)
Willkommen in der FFG Paul! Viel Erfolg bei der Ausbildung! +++ Wir begrüßen Julian und Martin als neue Mitglieder der FFG! Viel Erfolg bei der Ausbildung! +++ Oliver hat seinen ersten Alleinflug absolviert! Herzlichen Glückwunsch und weiterhin Happy Landings! +++ Wir begrüßen Gianluca in den Reihen der FFG! Viel Erfolg bei der Ausbildung! +++ Schon wieder zwei neue Mitglieder, herzlich Willkommen Andreas und Thomas! +++ Willkommen in der FFG Fabian! +++ Jens hat die praktische Prüfung bestanden! Herzlichen Glückwunsch und allzeit guten Flug! +++ Wir begrüßen Christopher als neues Mitglied der FFG! Always Happy Landings! +++ Flugbetrieb und Ausbildungsbetrieb unter Auflagen wieder möglich. +++ Gero steht ebenfalls als Fluglehrer zur Verfügung! Vielen Dank an Gero und viel Erfolg beim Ausbilden. +++ Ilya hat die Theorieprüfung bestanden! Herzlichen Glückwunsch und weiterhin viel Erfolg für die restliche Ausbildung!

wenig -> mittel -> viel

Professionelle Piloten arbeiten mit Checkliste
Ausdrucken und abarbeiten! Vorbereitete Links helfen bei der Beschaffung der notwendigen Informationen.

Weiterlesen ...

Hier gibt es die AIP mit allen erforderlichen Karten die im Abo der FFG liegen zum Download für unsere Mitglieder.

Letztes NOTAM EDVE
von 15.08.2020 0000Z bis 31.10.2020 2359Z
SAT SUN H24
REFUELLING WITH JET-A1 PPR. ALL REQ BY E-MAIL ONLY TO: GAT(AT)FHBWE.DE

Letztes NOTAM EDBC
von 12.08.2020 0838Z bis 10.11.2020 2359Z
ALL VFR AND IFR PROC TEMPO SUSPENDED. USABLE ONLY FOR FLIGHT VALIDATION.

Letztes NOTAM EDVM
von 11.09.2020 1500Z bis 13.09.2020 1600Z
AD CLSD.

Letztes NOTAM EDOV
von 16.08.2020 0400Z bis 06.09.2020 1700Z
DAILY SR-SS
GLIDER ACTIVITY AND FLIGHT TEST ACTIVITY 10NM RADIUS CENTERED ON 5238N 01149E, STENDAL-BORSTEL.
GND- FL095

Letztes NOTAM EDVI
von 17.08.2020 0000Z bis 18.09.2020 2359Z
MON-FRI H24
ASPHALT RWY 13/31 CLSD. GLIDER STRIP (640M) AVBL PPR.

Letztes NOTAM EDDV
von 11.08.2020 0700Z bis 12.08.2020 1400Z
DAILY 0700-1400
TWY N, H, J, K CLSD. TWY L CLSD BTW RWY 09L/27R AND HOLDINGPOINT RWY 09C/27C. TWY F CLSD BTW TWY G AND HOLDINGPOI [more]


Letztes NOTAM EDVK
von 07.08.2020 1120Z bis 21.08.2020 2159Z
RWY END IDENTIFIER LIGHTS RWY 27 U/S.

Letztes NOTAM EDVS
von 03.08.2020 0917Z bis 01.11.2020 2359Z
AD AVBL ONLY FOR HOMEBASED PILOTS.

          aerodata150     Radio38